sensor_id;sensor_type;location;lat;lon;timestamp;P1;durP1;ratioP1;P2;durP2;ratioP2
23624;SDS011;11989;47.872;12.014;2023-07-02T03:50:14;4.40;;;1.88;;
23624;SDS011;11989;47.872;12.014;2023-07-02T03:52:40;4.30;;;1.98;;
23624;SDS011;11989;47.872;12.014;2023-07-02T03:55:06;3.28;;;1.80;;
23624;SDS011;11989;47.872;12.014;2023-07-02T03:57:32;4.78;;;1.65;;
23624;SDS011;11989;47.872;12.014;2023-07-02T03:59:58;3.75;;;2.03;;
23624;SDS011;11989;47.872;12.014;2023-07-02T04:02:24;4.38;;;1.85;;
23624;SDS011;11989;47.872;12.014;2023-07-02T04:04:50;3.65;;;2.17;;
23624;SDS011;11989;47.872;12.014;2023-07-02T04:07:16;4.75;;;2.13;;
23624;SDS011;11989;47.872;12.014;2023-07-02T04:09:42;4.00;;;2.40;;
23624;SDS011;11989;47.872;12.014;2023-07-02T04:12:08;5.10;;;2.30;;
23624;SDS011;11989;47.872;12.014;2023-07-02T04:14:35;5.10;;;3.28;;
23624;SDS011;11989;47.872;12.014;2023-07-02T04:17:01;3.85;;;2.40;;
23624;SDS011;11989;47.872;12.014;2023-07-02T04:19:30;6.35;;;2.38;;
23624;SDS011;11989;47.872;12.014;2023-07-02T04:21:56;3.50;;;2.10;;
23624;SDS011;11989;47.872;12.014;2023-07-02T04:24:22;4.97;;;2.85;;
23624;SDS011;11989;47.872;12.014;2023-07-02T04:26:48;3.90;;;2.33;;
23624;SDS011;11989;47.872;12.014;2023-07-02T04:29:14;4.53;;;2.60;;
23624;SDS011;11989;47.872;12.014;2023-07-02T04:31:40;4.22;;;2.58;;
23624;SDS011;11989;47.872;12.014;2023-07-02T04:34:06;4.72;;;2.30;;
23624;SDS011;11989;47.872;12.014;2023-07-02T04:36:32;4.32;;;2.35;;
23624;SDS011;11989;47.872;12.014;2023-07-02T04:38:58;5.03;;;2.55;;
23624;SDS011;11989;47.872;12.014;2023-07-02T04:41:25;5.43;;;2.72;;
23624;SDS011;11989;47.872;12.014;2023-07-02T04:43:52;4.82;;;2.75;;
23624;SDS011;11989;47.872;12.014;2023-07-02T04:46:18;4.82;;;2.67;;
23624;SDS011;11989;47.872;12.014;2023-07-02T04:48:44;4.25;;;2.55;;
23624;SDS011;11989;47.872;12.014;2023-07-02T04:51:10;4.68;;;2.88;;
23624;SDS011;11989;47.872;12.014;2023-07-02T04:53:36;4.75;;;3.28;;
23624;SDS011;11989;47.872;12.014;2023-07-02T04:56:02;4.97;;;2.80;;
23624;SDS011;11989;47.872;12.014;2023-07-02T04:58:29;5.35;;;2.90;;
23624;SDS011;11989;47.872;12.014;2023-07-02T05:00:55;4.97;;;2.50;;
23624;SDS011;11989;47.872;12.014;2023-07-02T05:03:21;3.95;;;2.33;;
23624;SDS011;11989;47.872;12.014;2023-07-02T05:05:47;4.22;;;2.20;;
23624;SDS011;11989;47.872;12.014;2023-07-02T05:08:13;3.78;;;2.33;;
23624;SDS011;11989;47.872;12.014;2023-07-02T05:10:39;5.28;;;2.75;;
23624;SDS011;11989;47.872;12.014;2023-07-02T05:13:05;5.63;;;2.85;;
23624;SDS011;11989;47.872;12.014;2023-07-02T05:15:31;7.13;;;3.08;;
23624;SDS011;11989;47.872;12.014;2023-07-02T05:17:57;4.72;;;2.35;;
23624;SDS011;11989;47.872;12.014;2023-07-02T05:20:24;7.13;;;2.85;;
23624;SDS011;11989;47.872;12.014;2023-07-02T05:22:50;5.97;;;3.38;;
23624;SDS011;11989;47.872;12.014;2023-07-02T05:25:16;6.40;;;2.90;;
23624;SDS011;11989;47.872;12.014;2023-07-02T05:27:42;11.38;;;2.97;;
23624;SDS011;11989;47.872;12.014;2023-07-02T05:30:08;4.90;;;2.75;;
23624;SDS011;11989;47.872;12.014;2023-07-02T05:32:34;4.20;;;2.63;;
23624;SDS011;11989;47.872;12.014;2023-07-02T05:35:00;5.05;;;2.58;;
23624;SDS011;11989;47.872;12.014;2023-07-02T05:37:26;5.35;;;2.72;;
23624;SDS011;11989;47.872;12.014;2023-07-02T05:39:52;5.40;;;2.85;;
23624;SDS011;11989;47.872;12.014;2023-07-02T05:42:18;5.93;;;2.85;;
23624;SDS011;11989;47.872;12.014;2023-07-02T05:44:44;4.68;;;2.90;;
23624;SDS011;11989;47.872;12.014;2023-07-02T05:47:11;4.82;;;2.50;;
23624;SDS011;11989;47.872;12.014;2023-07-02T05:49:37;6.30;;;2.90;;
23624;SDS011;11989;47.872;12.014;2023-07-02T05:52:03;5.57;;;2.97;;
23624;SDS011;11989;47.872;12.014;2023-07-02T05:54:29;4.20;;;2.75;;
23624;SDS011;11989;47.872;12.014;2023-07-02T05:56:55;5.80;;;2.60;;
23624;SDS011;11989;47.872;12.014;2023-07-02T05:59:21;5.47;;;2.55;;
23624;SDS011;11989;47.872;12.014;2023-07-02T06:01:47;4.28;;;2.67;;
23624;SDS011;11989;47.872;12.014;2023-07-02T06:04:13;5.40;;;2.53;;
